METAR Data
IDs: Format: Raw Decoded Include TAF

Data at: 0516 UTC 26 Sep 2018

KOSC 260455Z AUTO 22006KT 10SM SCT013 SCT046 OVC070 18/18 A2968 RMK AO2 P0074 T01820182
KOSC 260435Z AUTO 30005G22KT 3SM RA SCT006 BKN012 OVC070 18/18 A2968 RMK AO2 P0074 T01800180
KOSC 260415Z AUTO 29015KT 2SM +RA SCT009 BKN029 OVC037 19/19 A2970 RMK AO2 P0035 T01910191
KOSC 260355Z AUTO 19003KT 10SM SCT034 BKN075 OVC090 19/19 A2967 RMK AO2 T01900190
KOSC 260335Z AUTO 18005KT 10SM OVC090 19/19 A2968 RMK AO2 T01860186
KOSC 260315Z AUTO 22004KT 10SM SCT100 18/18 A2970 RMK AO2 T01830183
KOSC 260255Z AUTO 21006KT 10SM CLR 18/18 A2972 RMK AO2 T01820182
KOSC 260235Z AUTO 00000KT 10SM SCT013 19/19 A2971 RMK AO2 T01870187
KOSC 260215Z AUTO 20004KT 10SM BKN015 BKN020 BKN041 19/19 A2972 RMK AO2 T01900190
KOSC 260155Z AUTO 23004KT 10SM SCT041 SCT060 SCT085 19/19 A2973 RMK AO2 T01910191
KOSC 260135Z AUTO 21007KT 10SM SCT013 SCT080 BKN085 20/20 A2974 RMK AO2 T02000200
KOSC 260115Z AUTO 17009KT 10SM RA SCT013 BKN065 OVC100 20/20 A2974 RMK AO2 T02030203
KOSC 260055Z AUTO 17003KT 10SM SCT028 OVC065 20/20 A2976 RMK AO2 T02010201
KOSC 260035Z AUTO 15005KT 10SM SCT065 BKN085 20/20 A2976 RMK AO2 T01990199
KOSC 260015Z AUTO 15004KT 10SM BKN070 OVC095 20/20 A2976 RMK AO2 T01990199
KOSC 252355Z AUTO 14004KT 10SM SCT070 BKN085 OVC100 20/18 A2977 RMK AO2 T02030182 10257 20203
KOSC 252335Z AUTO 00000KT 10SM SCT032 BKN085 21/19 A2977 RMK AO2 T02140185
KOSC 252315Z AUTO 18003KT 10SM SCT045 SCT060 22/19 A2977 RMK AO2 T02180185
KOSC 252255Z AUTO 18005KT 10SM BKN045 BKN060 22/19 A2979 RMK AO2 T02240185
KOSC 252235Z AUTO 17004KT 10SM OVC050 23/19 A2979 RMK AO2 T02310185
KOSC 252215Z AUTO 18003KT 10SM OVC055 23/18 A2980 RMK AO2 T02300181
KOSC 252155Z AUTO 19007KT 10SM BKN065 BKN095 24/18 A2979 RMK AO2 T02350177
KOSC 252135Z AUTO 20008KT 10SM SCT065 BKN075 BKN085 24/18 A2980 RMK AO2 T02360176
KOSC 252115Z AUTO 18007KT 10SM BKN065 OVC080 23/18 A2980 RMK AO2 T02300176
KOSC 252055Z AUTO 18005KT 10SM SCT065 OVC080 23/18 A2982 RMK AO2 T02300175
KOSC 252035Z AUTO 17008KT 10SM OVC100 23/17 A2982 RMK AO2 T02340174
KOSC 252015Z AUTO 17008KT 10SM SCT027 BKN100 24/18 A2982 RMK AO2 T02440180
KOSC 251955Z AUTO 18008KT 10SM CLR 25/18 A2982 RMK AO2 T02540179
KOSC 251935Z AUTO 22009KT 10SM CLR 25/18 A2983 RMK AO2 T02530182
KOSC 251915Z AUTO 21010KT 10SM CLR 26/18 A2984 RMK AO2 T02560177
KOSC 251855Z AUTO 20008KT 10SM SCT021 SCT026 24/19 A2985 RMK AO2 T02430185
KOSC 251835Z AUTO 20008KT 10SM SCT022 SCT028 SCT080 25/19 A2985 RMK AO2 T02510185
KOSC 251815Z AUTO 19008KT 10SM SCT024 SCT080 25/18 A2986 RMK AO2 T02510178
KOSC 251755Z AUTO 21008KT 10SM BKN024 25/18 A2987 RMK AO2 T02460179 10246 20186
KOSC 251735Z AUTO 19005KT 10SM BKN022 BKN075 24/18 A2987 RMK AO2 T02360180
KOSC 251715Z AUTO 22008KT 10SM BKN019 BKN024 24/18 A2988 RMK AO2 T02380182
KOSC 251655Z AUTO 22006KT 10SM BKN012 BKN018 23/19 A2989 RMK AO2 T02320194
KOSC 251635Z AUTO 21008KT 10SM BKN008 BKN016 OVC110 22/20 A2989 RMK AO2 T02240199
KOSC 251615Z AUTO 20009KT 10SM BKN008 BKN023 OVC075 22/21 A2990 RMK AO2 T02160213
KOSC 251555Z AUTO 20006KT 10SM BKN006 BKN011 OVC022 21/21 A2990 RMK AO2 T02050205
KOSC 251535Z AUTO 22006KT 10SM OVC006 20/20 A2990 RMK AO2 T02000200
KOSC 251515Z AUTO 21007KT 10SM OVC004 20/20 A2990 RMK AO2 T02000200
KOSC 251455Z AUTO 20006KT 7SM OVC004 20/20 A2990 RMK AO2 T01970197
KOSC 251435Z AUTO 21007KT 7SM OVC004 20/20 A2990 RMK AO2 T01960196
KOSC 251415Z AUTO 22005KT 7SM OVC004 20/20 A2991 RMK AO2 T01960196
KOSC 251355Z AUTO 21007KT 5SM BR OVC004 19/19 A2991 RMK AO2 T01930193
KOSC 251335Z AUTO 21007KT 4SM BR OVC004 19/19 A2991 RMK AO2 T01920192
KOSC 251315Z AUTO 21007KT 4SM BR OVC004 19/19 A2990 RMK AO2 T01900190
KOSC 251255Z AUTO 18006KT 3SM RA OVC004 19/19 A2991 RMK AO2 T01880188
KOSC 251235Z AUTO 21006KT 3SM BR OVC004 19/19 A2991 RMK AO2 T01890189
KOSC 251215Z AUTO 18005KT 2 1/2SM BR OVC004 19/19 A2992 RMK AO2 T01870187
KOSC 251155Z AUTO 20007KT 3SM BR OVC004 19/19 A2992 RMK AO2 T01860186 10187 20180
KOSC 251135Z AUTO 19005KT 5SM BR OVC004 19/19 A2992 RMK AO2 T01860186
KOSC 251115Z AUTO 20008KT 5SM UP OVC004 19/19 A2992 RMK AO2 T01870187
KOSC 251055Z AUTO 21009KT 3SM DZ OVC004 19/19 A2992 RMK AO2 T01860186
KOSC 251035Z AUTO 20007KT 4SM +DZ OVC004 19/19 A2992 RMK AO2 T01850185
KOSC 251015Z AUTO 20006KT 4SM DZ OVC004 19/19 A2991 RMK AO2 T01850185
KOSC 250955Z AUTO 18007KT 5SM -RA OVC004 18/18 A2991 RMK AO2 T01830183
KOSC 250935Z AUTO 17008KT 5SM DZ OVC004 18/18 A2991 RMK AO2 T01820182
KOSC 250915Z AUTO 18006KT 7SM -RA OVC004 18/18 A2991 RMK AO2 T01820182
KOSC 250855Z AUTO 19008KT 4SM DZ OVC006 18/18 A2992 RMK AO2 T01810181
KOSC 250835Z AUTO 19009KT 10SM -RA BKN006 OVC010 18/18 A2992 RMK AO2 T01820182
KOSC 250815Z AUTO 16008KT 7SM DZ OVC006 18/18 A2992 RMK AO2 T01810181
KOSC 250755Z AUTO 17007KT 7SM +RA OVC006 18/18 A2993 RMK AO2 T01800180
KOSC 250735Z AUTO 16009G14KT 10SM OVC006 18/18 A2993 RMK AO2 T01810181
KOSC 250715Z AUTO 16008KT 10SM OVC006 18/18 A2994 RMK AO2 T01800180
KOSC 250655Z AUTO 16010G15KT 10SM OVC006 18/18 A2995 RMK AO2 T01800180
KOSC 250635Z AUTO 17008KT 10SM OVC008 18/18 A2995 RMK AO2 T01800180
KOSC 250615Z AUTO 16008G14KT 7SM -RA OVC008 18/18 A2996 RMK AO2 T01800180
KOSC 250555Z AUTO 18007KT 10SM +RA OVC008 18/18 A2997 RMK AO2 T01820182 10185 20169
KOSC 250535Z AUTO 16007KT 10SM OVC008 18/18 A2997 RMK AO2 T01820182
KOSC 250515Z AUTO 16009KT 10SM -RA OVC010 18/18 A2999 RMK AO2 T01820182
KOSC 250455Z AUTO 16009G15KT 10SM OVC010 18/18 A2999 RMK AO2 T01830183
KOSC 250435Z AUTO 18008KT 10SM OVC010 18/18 A3001 RMK AO2 T01830182
KOSC 250415Z AUTO 16011G14KT 10SM OVC010 18/18 A3001 RMK AO2 T01830183
KOSC 250355Z AUTO 17010G16KT 10SM OVC010 18/18 A3001 RMK AO2 T01830182
KOSC 250335Z AUTO 16009KT 10SM OVC012 18/18 A3002 RMK AO2 T01830182
KOSC 250315Z AUTO 16010KT 10SM OVC012 18/18 A3002 RMK AO2 T01820181
KOSC 250255Z AUTO 16011G14KT 10SM OVC012 18/18 A3003 RMK AO2 T01820180
KOSC 250235Z AUTO 16009G15KT 10SM OVC014 18/18 A3003 RMK AO2 T01800180
KOSC 250215Z AUTO 16007G14KT 10SM OVC014 18/18 A3003 RMK AO2 T01800177
KOSC 250155Z AUTO 17007G14KT 10SM OVC014 18/18 A3003 RMK AO2 T01800177
KOSC 250135Z AUTO 16010G15KT 10SM OVC014 18/17 A3003 RMK AO2 T01780172
KOSC 250115Z AUTO 15009G14KT 10SM OVC016 18/17 A3004 RMK AO2 T01760171
KOSC 250055Z AUTO 14008KT 10SM RA OVC016 17/17 A3005 RMK AO2 T01730169
KOSC 250035Z AUTO 14007KT 10SM -RA OVC018 17/17 A3006 RMK AO2 T01710171
KOSC 250015Z AUTO 14009KT 10SM -DZ BKN015 OVC020 17/17 A3006 RMK AO2 T01700170
KOSC 242355Z AUTO 15007KT 10SM OVC015 17/17 A3007 RMK AO2 T01680168 10180 20166
KOSC 242335Z AUTO 15008KT 7SM -RA SCT010 OVC015 17/17 A3008 RMK AO2 T01660166
KOSC 242315Z AUTO 14006KT 7SM +RA OVC017 17/15 A3009 RMK AO2 T01710148
KOSC 242255Z AUTO 14008KT 10SM OVC017 17/14 A3009 RMK AO2 T01740144
KOSC 242235Z AUTO 14007KT 10SM OVC017 17/14 A3010 RMK AO2 T01720144
KOSC 242215Z AUTO 14007KT 7SM OVC017 17/14 A3010 RMK AO2 T01730143
KOSC 242155Z AUTO 13007KT 10SM OVC019 18/14 A3010 RMK AO2 T01760141
KOSC 242135Z AUTO 14008KT 10SM OVC021 18/14 A3011 RMK AO2 T01770140
KOSC 242115Z AUTO 14006KT 10SM OVC021 18/14 A3011 RMK AO2 T01790139
KOSC 242055Z AUTO 15007KT 10SM OVC021 18/14 A3012 RMK AO2 T01780137
KOSC 242035Z AUTO 17007KT 10SM OVC019 18/14 A3013 RMK AO2 T01770136
KOSC 242015Z AUTO 13007KT 10SM OVC017 17/14 A3013 RMK AO2 T01740137
KOSC 241955Z AUTO 12010KT 10SM OVC017 17/14 A3014 RMK AO2 T01710135
KOSC 241935Z AUTO 13009KT 10SM OVC019 17/13 A3015 RMK AO2 T01710133
KOSC 241915Z AUTO 12008G14KT 10SM OVC019 17/13 A3016 RMK AO2 T01700131
KOSC 241855Z AUTO 12008G15KT 10SM OVC017 17/13 A3017 RMK AO2 T01710131
KOSC 241835Z AUTO 13011G15KT 10SM OVC015 17/13 A3018 RMK AO2 T01690130
KOSC 241815Z AUTO 12008KT 10SM OVC017 17/13 A3019 RMK AO2 T01710132
KOSC 241755Z AUTO 11010G14KT 10SM OVC017 17/13 A3020 RMK AO2 T01710132 10174 20144
KOSC 241735Z AUTO 11010KT 10SM OVC017 17/13 A3021 RMK AO2 T01700131